RYR34DA LFOB-LICC
Flight info
| Callsign | RYR34DA |
|---|---|
| Flight time | 2h 29m |
| Altitude | 37000 |
| Route | OKASI DCT OKEKO DCT MOU DCT MADIV DCT MOKIP DCT TUFTA DCT KOGAS DCT MEDAM DCT NITAM DCT MOGBO DCT KONER DCT BAKRO DCT VELAD DCT BEKIV DCT ENEPA M871 LIBRO |
| Aircraft | B738/M-SDE3FGILRWY/SB1 |
Departure
| Time | 2026-05-07 12:15 |
|---|---|
| Airport | Beauvais-Tillé airport (LFOB) |
Arrival
| Time | 2026-05-07 14:44 |
|---|---|
| Airport | Catania-Fontanarossa Airport (LICC) |
| Time | Latitude | Longitude | Altitude | Speed | Heading |
|---|---|---|---|---|---|
| 2026-05-07 11:43 | 49.45824 | 2.11333 | 355 ft | 0 kts | 311° |
| 2026-05-07 12:05 | 49.45823 | 2.11335 | 346 ft | 2 kts | 311° |
| 2026-05-07 12:05 | 49.45806 | 2.11365 | 356 ft | 4 kts | 308° |
| 2026-05-07 12:06 | 49.45794 | 2.11400 | 347 ft | 4 kts | 280° |
| 2026-05-07 12:06 | 49.45796 | 2.11436 | 349 ft | 4 kts | 232° |
| 2026-05-07 12:06 | 49.45800 | 2.11444 | 351 ft | 1 kts | 223° |
| 2026-05-07 12:09 | 49.45786 | 2.11423 | 357 ft | 4 kts | 223° |
| 2026-05-07 12:09 | 49.45765 | 2.11393 | 345 ft | 4 kts | 221° |
| 2026-05-07 12:09 | 49.45741 | 2.11361 | 350 ft | 5 kts | 221° |
| 2026-05-07 12:10 | 49.45708 | 2.11311 | 354 ft | 9 kts | 237° |
| 2026-05-07 12:10 | 49.45714 | 2.11213 | 347 ft | 10 kts | 297° |
| 2026-05-07 12:10 | 49.45751 | 2.11125 | 346 ft | 10 kts | 304° |
| 2026-05-07 12:10 | 49.45787 | 2.11039 | 351 ft | 9 kts | 293° |
| 2026-05-07 12:11 | 49.45765 | 2.10973 | 349 ft | 0 kts | 213° |
| 2026-05-07 12:11 | 49.45738 | 2.10949 | 352 ft | 10 kts | 208° |
| 2026-05-07 12:11 | 49.45672 | 2.10894 | 351 ft | 11 kts | 208° |
| 2026-05-07 12:12 | 49.45658 | 2.10794 | 356 ft | 11 kts | 294° |
| 2026-05-07 12:12 | 49.45697 | 2.10698 | 357 ft | 10 kts | 303° |
| 2026-05-07 12:12 | 49.45737 | 2.10607 | 354 ft | 10 kts | 303° |
| 2026-05-07 12:12 | 49.45775 | 2.10519 | 360 ft | 10 kts | 310° |
| 2026-05-07 12:13 | 49.45834 | 2.10469 | 361 ft | 10 kts | 334° |
| 2026-05-07 12:13 | 49.45831 | 2.10420 | 360 ft | 3 kts | 180° |
| 2026-05-07 12:13 | 49.45811 | 2.10442 | 360 ft | 4 kts | 143° |
| 2026-05-07 12:13 | 49.45804 | 2.10455 | 362 ft | 0 kts | 127° |
| 2026-05-07 12:14 | 49.45692 | 2.10708 | 359 ft | 67 kts | 123° |
| 2026-05-07 12:14 | 49.45298 | 2.11613 | 331 ft | 137 kts | 123° |
| 2026-05-07 12:14 | 49.44740 | 2.13047 | 602 ft | 167 kts | 112° |
| 2026-05-07 12:15 | 49.44346 | 2.14738 | 1455 ft | 169 kts | 106° |
| 2026-05-07 12:15 | 49.44030 | 2.16552 | 2082 ft | 188 kts | 102° |
| 2026-05-07 12:15 | 49.43833 | 2.18478 | 2441 ft | 212 kts | 93° |
| 2026-05-07 12:15 | 49.43874 | 2.20858 | 2811 ft | 233 kts | 83° |
| 2026-05-07 12:16 | 49.44088 | 2.23426 | 3192 ft | 253 kts | 83° |
| 2026-05-07 12:16 | 49.44263 | 2.26173 | 3936 ft | 261 kts | 84° |
| 2026-05-07 12:16 | 49.44417 | 2.28927 | 4877 ft | 263 kts | 84° |
| 2026-05-07 12:16 | 49.44571 | 2.31745 | 5781 ft | 266 kts | 85° |
| 2026-05-07 12:17 | 49.44658 | 2.34601 | 6657 ft | 270 kts | 95° |
| 2026-05-07 12:17 | 49.44424 | 2.36741 | 7264 ft | 273 kts | 104° |
| 2026-05-07 12:17 | 49.43705 | 2.39461 | 8060 ft | 277 kts | 118° |
| 2026-05-07 12:17 | 49.42699 | 2.42016 | 8851 ft | 282 kts | 130° |
| 2026-05-07 12:18 | 49.41113 | 2.43752 | 9630 ft | 285 kts | 163° |
| 2026-05-07 12:18 | 49.39172 | 2.44376 | 10412 ft | 288 kts | 172° |
| 2026-05-07 12:18 | 49.37193 | 2.44790 | 10670 ft | 311 kts | 174° |
| 2026-05-07 12:18 | 49.34962 | 2.45191 | 10953 ft | 332 kts | 174° |
| 2026-05-07 12:19 | 49.32638 | 2.45596 | 11579 ft | 340 kts | 174° |
| 2026-05-07 12:19 | 49.30394 | 2.45992 | 12319 ft | 342 kts | 174° |
| 2026-05-07 12:19 | 49.28929 | 2.46255 | 12820 ft | 344 kts | 174° |
| 2026-05-07 12:19 | 49.26538 | 2.46690 | 13570 ft | 349 kts | 174° |
| 2026-05-07 12:20 | 49.24116 | 2.47137 | 14269 ft | 353 kts | 174° |
| 2026-05-07 12:20 | 49.21664 | 2.47593 | 14968 ft | 356 kts | 174° |
| 2026-05-07 12:20 | 49.19238 | 2.48046 | 15653 ft | 359 kts | 174° |
| 2026-05-07 12:20 | 49.16750 | 2.48513 | 16327 ft | 362 kts | 174° |
| 2026-05-07 12:21 | 49.14249 | 2.48982 | 17005 ft | 366 kts | 174° |
| 2026-05-07 12:21 | 49.11925 | 2.49419 | 17623 ft | 369 kts | 174° |
| 2026-05-07 12:21 | 49.09545 | 2.49865 | 18256 ft | 372 kts | 174° |
| 2026-05-07 12:21 | 49.06964 | 2.50348 | 18838 ft | 376 kts | 174° |
| 2026-05-07 12:22 | 49.04435 | 2.50822 | 19394 ft | 378 kts | 174° |
| 2026-05-07 12:22 | 49.01735 | 2.51327 | 19986 ft | 382 kts | 174° |
| 2026-05-07 12:22 | 48.99088 | 2.51822 | 20543 ft | 385 kts | 174° |
| 2026-05-07 12:22 | 48.96416 | 2.52321 | 21099 ft | 388 kts | 174° |
| 2026-05-07 12:23 | 48.94025 | 2.52767 | 21557 ft | 391 kts | 174° |
| 2026-05-07 12:23 | 48.91570 | 2.53224 | 21905 ft | 396 kts | 174° |
| 2026-05-07 12:23 | 48.88827 | 2.53735 | 22225 ft | 398 kts | 174° |
| 2026-05-07 12:23 | 48.86078 | 2.54247 | 22551 ft | 397 kts | 174° |
| 2026-05-07 12:24 | 48.83335 | 2.54757 | 22874 ft | 398 kts | 174° |
| 2026-05-07 12:24 | 48.80589 | 2.55266 | 23201 ft | 399 kts | 174° |
| 2026-05-07 12:24 | 48.77831 | 2.55777 | 23536 ft | 399 kts | 174° |
| 2026-05-07 12:24 | 48.75077 | 2.56287 | 23820 ft | 400 kts | 174° |
| 2026-05-07 12:25 | 48.72458 | 2.56771 | 24111 ft | 406 kts | 174° |
| 2026-05-07 12:25 | 48.69643 | 2.57291 | 24474 ft | 410 kts | 174° |
| 2026-05-07 12:25 | 48.66803 | 2.57814 | 24917 ft | 412 kts | 174° |
| 2026-05-07 12:25 | 48.63953 | 2.58340 | 25362 ft | 414 kts | 174° |
| 2026-05-07 12:26 | 48.61086 | 2.58868 | 25773 ft | 416 kts | 174° |
| 2026-05-07 12:26 | 48.58212 | 2.59397 | 26167 ft | 419 kts | 174° |
| 2026-05-07 12:26 | 48.55313 | 2.59930 | 26576 ft | 421 kts | 174° |
| 2026-05-07 12:26 | 48.52397 | 2.60465 | 26958 ft | 424 kts | 174° |
| 2026-05-07 12:27 | 48.49458 | 2.61002 | 27347 ft | 427 kts | 175° |
| 2026-05-07 12:27 | 48.46495 | 2.61387 | 27721 ft | 428 kts | 178° |
| 2026-05-07 12:27 | 48.43514 | 2.61599 | 28114 ft | 430 kts | 179° |
| 2026-05-07 12:27 | 48.40577 | 2.61758 | 28459 ft | 433 kts | 179° |
| 2026-05-07 12:28 | 48.37557 | 2.61933 | 28806 ft | 435 kts | 179° |
| 2026-05-07 12:28 | 48.34525 | 2.62139 | 29153 ft | 437 kts | 179° |
| 2026-05-07 12:28 | 48.31475 | 2.62369 | 29498 ft | 440 kts | 177° |
| 2026-05-07 12:28 | 48.28438 | 2.63083 | 29795 ft | 444 kts | 167° |
| 2026-05-07 12:29 | 48.25487 | 2.64502 | 30090 ft | 448 kts | 158° |
| 2026-05-07 12:29 | 48.22758 | 2.66504 | 30355 ft | 451 kts | 154° |
| 2026-05-07 12:29 | 48.19980 | 2.68705 | 30632 ft | 453 kts | 153° |
| 2026-05-07 12:29 | 48.17199 | 2.70931 | 30911 ft | 454 kts | 154° |
| 2026-05-07 12:30 | 48.14401 | 2.73131 | 31253 ft | 453 kts | 154° |
| 2026-05-07 12:30 | 48.11606 | 2.75285 | 31646 ft | 451 kts | 155° |
| 2026-05-07 12:30 | 48.08817 | 2.77412 | 32030 ft | 449 kts | 155° |
| 2026-05-07 12:30 | 48.06055 | 2.79355 | 32343 ft | 449 kts | 158° |
| 2026-05-07 12:31 | 48.03190 | 2.81207 | 32649 ft | 448 kts | 159° |
| 2026-05-07 12:31 | 48.00331 | 2.82992 | 32987 ft | 447 kts | 160° |
| 2026-05-07 12:31 | 47.97465 | 2.84769 | 33342 ft | 446 kts | 160° |
| 2026-05-07 12:31 | 47.94672 | 2.86508 | 33653 ft | 446 kts | 160° |
| 2026-05-07 12:32 | 47.91741 | 2.88345 | 33953 ft | 446 kts | 160° |
| 2026-05-07 12:32 | 47.88887 | 2.90145 | 34224 ft | 446 kts | 160° |
| 2026-05-07 12:32 | 47.86035 | 2.91948 | 34487 ft | 445 kts | 160° |
| 2026-05-07 12:32 | 47.83184 | 2.93752 | 34692 ft | 446 kts | 160° |
| 2026-05-07 12:33 | 47.77507 | 2.97339 | 35134 ft | 447 kts | 160° |
| 2026-05-07 12:33 | 47.74647 | 2.99144 | 35363 ft | 446 kts | 160° |
| 2026-05-07 12:33 | 47.71789 | 3.00944 | 35581 ft | 446 kts | 160° |
| 2026-05-07 12:34 | 47.68925 | 3.02745 | 35782 ft | 447 kts | 160° |
| 2026-05-07 12:34 | 47.66062 | 3.04543 | 36008 ft | 447 kts | 160° |
| 2026-05-07 12:34 | 47.63199 | 3.06340 | 36233 ft | 447 kts | 160° |
| 2026-05-07 12:34 | 47.60339 | 3.08133 | 36430 ft | 447 kts | 160° |
| 2026-05-07 12:35 | 47.57474 | 3.09927 | 36629 ft | 447 kts | 160° |
| 2026-05-07 12:35 | 47.54619 | 3.11712 | 36824 ft | 447 kts | 160° |
| 2026-05-07 12:35 | 47.51754 | 3.13499 | 37023 ft | 447 kts | 160° |
| 2026-05-07 12:35 | 47.48875 | 3.15291 | 37030 ft | 451 kts | 160° |
| 2026-05-07 12:36 | 47.43102 | 3.18878 | 37032 ft | 448 kts | 160° |
| 2026-05-07 12:36 | 47.37376 | 3.22432 | 37033 ft | 445 kts | 160° |
| 2026-05-07 12:37 | 47.31767 | 3.25904 | 37024 ft | 442 kts | 160° |
| 2026-05-07 12:37 | 47.26101 | 3.29404 | 37037 ft | 441 kts | 160° |
| 2026-05-07 12:38 | 47.20450 | 3.32884 | 37038 ft | 440 kts | 160° |
| 2026-05-07 12:38 | 47.14851 | 3.36326 | 37047 ft | 442 kts | 160° |
| 2026-05-07 12:39 | 47.09162 | 3.39814 | 37043 ft | 444 kts | 160° |
| 2026-05-07 12:39 | 47.03447 | 3.43312 | 37049 ft | 446 kts | 160° |
| 2026-05-07 12:40 | 46.97740 | 3.46796 | 37042 ft | 449 kts | 160° |
| 2026-05-07 12:40 | 46.91962 | 3.50315 | 37034 ft | 451 kts | 160° |
| 2026-05-07 12:41 | 46.86163 | 3.53840 | 37023 ft | 452 kts | 160° |
| 2026-05-07 12:41 | 46.80430 | 3.57318 | 37026 ft | 453 kts | 161° |
| 2026-05-07 12:42 | 46.74632 | 3.60900 | 37012 ft | 455 kts | 154° |
| 2026-05-07 12:42 | 46.72097 | 3.63675 | 37032 ft | 460 kts | 135° |
| 2026-05-07 12:42 | 46.70183 | 3.67423 | 37009 ft | 465 kts | 119° |
| 2026-05-07 12:43 | 46.69055 | 3.71837 | 37044 ft | 467 kts | 106° |
| 2026-05-07 12:43 | 46.68298 | 3.76440 | 37017 ft | 468 kts | 104° |
| 2026-05-07 12:43 | 46.67128 | 3.84006 | 37021 ft | 467 kts | 105° |
| 2026-05-07 12:44 | 46.65557 | 3.93297 | 37018 ft | 467 kts | 106° |
| 2026-05-07 12:44 | 46.63961 | 4.02464 | 37020 ft | 467 kts | 106° |
| 2026-05-07 12:45 | 46.62371 | 4.11614 | 37017 ft | 467 kts | 106° |
| 2026-05-07 12:45 | 46.60773 | 4.20782 | 37013 ft | 468 kts | 106° |
| 2026-05-07 12:46 | 46.59167 | 4.29951 | 37014 ft | 468 kts | 106° |
| 2026-05-07 12:46 | 46.57579 | 4.38966 | 37016 ft | 468 kts | 106° |
| 2026-05-07 12:47 | 46.55967 | 4.48071 | 37021 ft | 469 kts | 106° |
| 2026-05-07 12:47 | 46.54336 | 4.57241 | 37012 ft | 469 kts | 106° |
| 2026-05-07 12:48 | 46.52706 | 4.66356 | 37013 ft | 470 kts | 106° |
| 2026-05-07 12:48 | 46.51055 | 4.75542 | 37020 ft | 470 kts | 106° |
| 2026-05-07 12:49 | 46.49397 | 4.84720 | 37015 ft | 470 kts | 107° |
| 2026-05-07 12:49 | 46.47730 | 4.93906 | 37019 ft | 471 kts | 107° |
| 2026-05-07 12:50 | 46.46056 | 5.03088 | 37017 ft | 471 kts | 107° |
| 2026-05-07 12:50 | 46.44371 | 5.12267 | 37028 ft | 471 kts | 107° |
| 2026-05-07 12:51 | 46.42666 | 5.21440 | 37014 ft | 471 kts | 107° |
| 2026-05-07 12:51 | 46.40957 | 5.30600 | 37022 ft | 472 kts | 107° |
| 2026-05-07 12:52 | 46.39068 | 5.39634 | 37005 ft | 469 kts | 116° |
| 2026-05-07 12:52 | 46.35718 | 5.47613 | 37018 ft | 461 kts | 133° |
| 2026-05-07 12:53 | 46.31553 | 5.54583 | 37016 ft | 461 kts | 135° |
| 2026-05-07 12:53 | 46.27333 | 5.61572 | 37012 ft | 462 kts | 134° |
| 2026-05-07 12:54 | 46.23134 | 5.68606 | 37018 ft | 462 kts | 134° |
| 2026-05-07 12:54 | 46.19091 | 5.75411 | 37010 ft | 463 kts | 134° |
| 2026-05-07 12:55 | 46.14973 | 5.82337 | 36993 ft | 464 kts | 134° |
| 2026-05-07 12:55 | 46.10765 | 5.89391 | 36985 ft | 464 kts | 134° |
| 2026-05-07 12:56 | 46.06556 | 5.96427 | 36993 ft | 464 kts | 134° |
| 2026-05-07 12:56 | 46.02340 | 6.03456 | 36993 ft | 464 kts | 134° |
| 2026-05-07 12:57 | 45.98115 | 6.10482 | 36991 ft | 464 kts | 134° |
| 2026-05-07 12:57 | 45.93889 | 6.17492 | 36994 ft | 465 kts | 135° |
| 2026-05-07 12:58 | 45.89678 | 6.24460 | 36992 ft | 465 kts | 135° |
| 2026-05-07 12:58 | 45.85487 | 6.31382 | 37008 ft | 466 kts | 135° |
| 2026-05-07 12:59 | 45.81198 | 6.38348 | 36985 ft | 465 kts | 139° |
| 2026-05-07 12:59 | 45.76180 | 6.44034 | 37004 ft | 458 kts | 149° |
| 2026-05-07 13:00 | 45.71038 | 6.49134 | 36989 ft | 458 kts | 150° |
| 2026-05-07 13:00 | 45.65815 | 6.54354 | 36952 ft | 457 kts | 149° |
| 2026-05-07 13:01 | 45.61012 | 6.59210 | 36997 ft | 453 kts | 149° |
| 2026-05-07 13:01 | 45.55800 | 6.64484 | 36981 ft | 453 kts | 149° |
| 2026-05-07 13:02 | 45.50640 | 6.69691 | 36980 ft | 454 kts | 149° |
| 2026-05-07 13:02 | 45.45565 | 6.74799 | 36985 ft | 456 kts | 150° |
| 2026-05-07 13:03 | 45.40369 | 6.80019 | 36982 ft | 458 kts | 150° |
| 2026-05-07 13:03 | 45.35144 | 6.85257 | 36981 ft | 460 kts | 150° |
| 2026-05-07 13:04 | 45.29901 | 6.90504 | 36984 ft | 461 kts | 150° |
| 2026-05-07 13:04 | 45.24781 | 6.96037 | 36983 ft | 467 kts | 141° |
| 2026-05-07 13:05 | 45.20207 | 7.02446 | 36992 ft | 469 kts | 140° |
| 2026-05-07 13:05 | 45.15608 | 7.08915 | 36977 ft | 468 kts | 140° |
| 2026-05-07 13:06 | 45.11692 | 7.14307 | 36981 ft | 467 kts | 140° |
| 2026-05-07 13:06 | 45.07706 | 7.21348 | 37001 ft | 471 kts | 129° |
| 2026-05-07 13:07 | 45.04113 | 7.28838 | 36983 ft | 470 kts | 128° |
| 2026-05-07 13:07 | 45.00314 | 7.36569 | 36986 ft | 469 kts | 129° |
| 2026-05-07 13:08 | 44.96585 | 7.43407 | 36983 ft | 463 kts | 137° |
| 2026-05-07 13:08 | 44.92144 | 7.49998 | 36985 ft | 463 kts | 139° |
| 2026-05-07 13:09 | 44.87940 | 7.56131 | 36983 ft | 464 kts | 139° |
| 2026-05-07 13:09 | 44.83493 | 7.62664 | 36979 ft | 466 kts | 139° |
| 2026-05-07 13:10 | 44.79040 | 7.69241 | 36978 ft | 467 kts | 139° |
| 2026-05-07 13:10 | 44.74550 | 7.75873 | 36984 ft | 469 kts | 139° |
| 2026-05-07 13:11 | 44.70271 | 7.82179 | 36980 ft | 469 kts | 139° |
| 2026-05-07 13:11 | 44.65757 | 7.88813 | 36980 ft | 470 kts | 139° |
| 2026-05-07 13:12 | 44.61278 | 7.95380 | 36974 ft | 470 kts | 139° |
| 2026-05-07 13:12 | 44.56757 | 8.01992 | 36973 ft | 469 kts | 139° |
| 2026-05-07 13:13 | 44.52279 | 8.08524 | 36965 ft | 469 kts | 139° |
| 2026-05-07 13:13 | 44.47764 | 8.15097 | 36965 ft | 468 kts | 139° |
| 2026-05-07 13:14 | 44.43260 | 8.21637 | 36966 ft | 466 kts | 139° |
| 2026-05-07 13:14 | 44.38767 | 8.28145 | 36967 ft | 464 kts | 139° |
| 2026-05-07 13:15 | 44.34351 | 8.34527 | 36978 ft | 463 kts | 139° |
| 2026-05-07 13:15 | 44.29879 | 8.40974 | 36975 ft | 461 kts | 139° |
| 2026-05-07 13:16 | 44.25413 | 8.47397 | 36987 ft | 461 kts | 140° |
| 2026-05-07 13:16 | 44.20946 | 8.53809 | 36993 ft | 461 kts | 140° |
| 2026-05-07 13:17 | 44.16508 | 8.60162 | 36992 ft | 461 kts | 140° |
| 2026-05-07 13:17 | 44.12156 | 8.66378 | 36995 ft | 461 kts | 140° |
| 2026-05-07 13:18 | 44.07672 | 8.72769 | 36991 ft | 462 kts | 140° |
| 2026-05-07 13:18 | 44.03176 | 8.79162 | 36989 ft | 463 kts | 140° |
| 2026-05-07 13:19 | 43.98671 | 8.85553 | 36991 ft | 463 kts | 140° |
| 2026-05-07 13:19 | 43.94155 | 8.91946 | 36992 ft | 464 kts | 140° |
| 2026-05-07 13:20 | 43.89633 | 8.98331 | 36991 ft | 465 kts | 140° |
| 2026-05-07 13:20 | 43.85097 | 9.04724 | 36992 ft | 465 kts | 140° |
| 2026-05-07 13:21 | 43.80557 | 9.11106 | 36991 ft | 465 kts | 140° |
| 2026-05-07 13:21 | 43.76014 | 9.17477 | 36998 ft | 465 kts | 140° |
| 2026-05-07 13:22 | 43.71473 | 9.23832 | 36994 ft | 464 kts | 140° |
| 2026-05-07 13:22 | 43.66931 | 9.30174 | 36996 ft | 464 kts | 140° |
| 2026-05-07 13:23 | 43.62389 | 9.36501 | 36995 ft | 463 kts | 141° |
| 2026-05-07 13:23 | 43.57854 | 9.42805 | 37003 ft | 463 kts | 141° |
| 2026-05-07 13:24 | 43.53320 | 9.49096 | 37002 ft | 462 kts | 141° |
| 2026-05-07 13:24 | 43.48702 | 9.55218 | 37001 ft | 458 kts | 146° |
| 2026-05-07 13:25 | 43.43799 | 9.60758 | 37005 ft | 455 kts | 148° |
| 2026-05-07 13:25 | 43.38861 | 9.66224 | 37001 ft | 456 kts | 147° |
| 2026-05-07 13:26 | 43.33953 | 9.71735 | 37003 ft | 456 kts | 147° |
| 2026-05-07 13:26 | 43.29051 | 9.77267 | 37004 ft | 456 kts | 147° |
| 2026-05-07 13:27 | 43.24148 | 9.82792 | 37008 ft | 456 kts | 147° |
| 2026-05-07 13:27 | 43.19233 | 9.88292 | 37005 ft | 455 kts | 149° |
| 2026-05-07 13:28 | 43.13941 | 9.92826 | 37001 ft | 447 kts | 158° |
| 2026-05-07 13:28 | 43.09458 | 9.96259 | 37012 ft | 447 kts | 158° |
| 2026-05-07 13:29 | 43.04031 | 10.00420 | 36999 ft | 448 kts | 158° |
| 2026-05-07 13:29 | 42.98606 | 10.04633 | 37001 ft | 448 kts | 158° |
| 2026-05-07 13:30 | 42.93189 | 10.08860 | 37003 ft | 449 kts | 158° |
| 2026-05-07 13:30 | 42.87770 | 10.13087 | 37002 ft | 449 kts | 158° |
| 2026-05-07 13:31 | 42.82350 | 10.17305 | 36998 ft | 449 kts | 158° |
| 2026-05-07 13:31 | 42.76931 | 10.21511 | 37012 ft | 449 kts | 158° |
| 2026-05-07 13:32 | 42.71502 | 10.25715 | 36994 ft | 449 kts | 158° |
| 2026-05-07 13:32 | 42.66067 | 10.29917 | 36995 ft | 449 kts | 158° |
| 2026-05-07 13:33 | 42.60634 | 10.34109 | 36996 ft | 449 kts | 158° |
| 2026-05-07 13:33 | 42.55207 | 10.38287 | 36997 ft | 448 kts | 159° |
| 2026-05-07 13:34 | 42.47068 | 10.44537 | 36996 ft | 448 kts | 159° |
| 2026-05-07 13:35 | 42.41642 | 10.48693 | 36993 ft | 448 kts | 159° |
| 2026-05-07 13:35 | 42.36212 | 10.52844 | 36993 ft | 448 kts | 159° |
| 2026-05-07 13:36 | 42.30784 | 10.56985 | 36997 ft | 448 kts | 159° |
| 2026-05-07 13:36 | 42.25352 | 10.61122 | 36994 ft | 449 kts | 159° |
| 2026-05-07 13:37 | 42.19913 | 10.65255 | 36999 ft | 449 kts | 159° |
| 2026-05-07 13:37 | 42.14468 | 10.69386 | 36992 ft | 449 kts | 159° |
| 2026-05-07 13:38 | 42.09015 | 10.73515 | 36994 ft | 449 kts | 159° |
| 2026-05-07 13:38 | 42.03559 | 10.77632 | 36992 ft | 450 kts | 160° |
| 2026-05-07 13:39 | 41.98127 | 10.81682 | 36996 ft | 450 kts | 160° |
| 2026-05-07 13:39 | 41.92650 | 10.85748 | 36998 ft | 450 kts | 160° |
| 2026-05-07 13:40 | 41.87169 | 10.89814 | 37000 ft | 450 kts | 160° |
| 2026-05-07 13:40 | 41.81688 | 10.93876 | 36996 ft | 450 kts | 161° |
| 2026-05-07 13:41 | 41.76204 | 10.97933 | 36989 ft | 450 kts | 161° |
| 2026-05-07 13:41 | 41.70713 | 11.01988 | 36991 ft | 451 kts | 161° |
| 2026-05-07 13:42 | 41.65223 | 11.06034 | 36989 ft | 451 kts | 162° |
| 2026-05-07 13:42 | 41.59728 | 11.10076 | 36992 ft | 451 kts | 162° |
| 2026-05-07 13:43 | 41.54232 | 11.14110 | 36992 ft | 451 kts | 162° |
| 2026-05-07 13:43 | 41.48734 | 11.18137 | 36991 ft | 451 kts | 162° |
| 2026-05-07 13:44 | 41.43229 | 11.22162 | 36991 ft | 451 kts | 163° |
| 2026-05-07 13:44 | 41.37721 | 11.26181 | 36991 ft | 451 kts | 163° |
| 2026-05-07 13:45 | 41.32208 | 11.30196 | 36985 ft | 452 kts | 163° |
| 2026-05-07 13:45 | 41.26727 | 11.34180 | 36985 ft | 452 kts | 163° |
| 2026-05-07 13:46 | 41.21209 | 11.38183 | 36996 ft | 452 kts | 164° |
| 2026-05-07 13:46 | 41.15688 | 11.42181 | 36986 ft | 452 kts | 164° |
| 2026-05-07 13:47 | 41.10158 | 11.46178 | 36979 ft | 452 kts | 164° |
| 2026-05-07 13:47 | 41.04636 | 11.50161 | 36981 ft | 452 kts | 164° |
| 2026-05-07 13:48 | 40.99114 | 11.54136 | 36976 ft | 452 kts | 165° |
| 2026-05-07 13:48 | 40.93595 | 11.58102 | 36974 ft | 451 kts | 165° |
| 2026-05-07 13:49 | 40.88075 | 11.62061 | 36974 ft | 451 kts | 165° |
| 2026-05-07 13:49 | 40.82554 | 11.66012 | 36977 ft | 451 kts | 165° |
| 2026-05-07 13:50 | 40.77028 | 11.69959 | 36975 ft | 452 kts | 165° |
| 2026-05-07 13:50 | 40.71492 | 11.73905 | 36977 ft | 453 kts | 165° |
| 2026-05-07 13:51 | 40.65945 | 11.77852 | 36969 ft | 454 kts | 166° |
| 2026-05-07 13:51 | 40.60386 | 11.81800 | 36977 ft | 455 kts | 166° |
| 2026-05-07 13:52 | 40.54809 | 11.85755 | 36979 ft | 456 kts | 166° |
| 2026-05-07 13:52 | 40.49211 | 11.89715 | 36970 ft | 458 kts | 166° |
| 2026-05-07 13:53 | 40.43595 | 11.93682 | 36971 ft | 459 kts | 166° |
| 2026-05-07 13:53 | 40.38006 | 11.97624 | 36967 ft | 460 kts | 166° |
| 2026-05-07 13:54 | 40.32372 | 12.01590 | 36963 ft | 460 kts | 166° |
| 2026-05-07 13:54 | 40.26733 | 12.05552 | 36964 ft | 459 kts | 167° |
| 2026-05-07 13:55 | 40.21104 | 12.09499 | 36960 ft | 458 kts | 167° |
| 2026-05-07 13:55 | 40.15489 | 12.13429 | 36956 ft | 457 kts | 167° |
| 2026-05-07 13:56 | 40.09891 | 12.17339 | 36952 ft | 455 kts | 167° |
| 2026-05-07 13:56 | 40.04318 | 12.21224 | 36951 ft | 453 kts | 167° |
| 2026-05-07 13:57 | 39.98765 | 12.25088 | 36948 ft | 451 kts | 167° |
| 2026-05-07 13:57 | 39.93232 | 12.28930 | 36944 ft | 450 kts | 167° |
| 2026-05-07 13:58 | 39.87719 | 12.32750 | 36951 ft | 448 kts | 167° |
| 2026-05-07 13:58 | 39.82220 | 12.36553 | 36944 ft | 447 kts | 167° |
| 2026-05-07 13:59 | 39.76738 | 12.40338 | 36942 ft | 446 kts | 167° |
| 2026-05-07 13:59 | 39.71256 | 12.44116 | 36941 ft | 446 kts | 167° |
| 2026-05-07 14:00 | 39.65778 | 12.47884 | 36935 ft | 445 kts | 167° |
| 2026-05-07 14:00 | 39.60299 | 12.51646 | 36934 ft | 446 kts | 167° |
| 2026-05-07 14:01 | 39.54812 | 12.55407 | 36930 ft | 446 kts | 167° |
| 2026-05-07 14:01 | 39.49317 | 12.59167 | 36926 ft | 447 kts | 167° |
| 2026-05-07 14:02 | 39.43850 | 12.62901 | 36931 ft | 447 kts | 167° |
| 2026-05-07 14:02 | 39.38337 | 12.66660 | 36916 ft | 448 kts | 166° |
| 2026-05-07 14:03 | 39.32814 | 12.70419 | 36914 ft | 449 kts | 166° |
| 2026-05-07 14:03 | 39.27283 | 12.74178 | 36914 ft | 450 kts | 166° |
| 2026-05-07 14:04 | 39.21743 | 12.77935 | 36912 ft | 450 kts | 166° |
| 2026-05-07 14:04 | 39.16192 | 12.81693 | 36904 ft | 451 kts | 166° |
| 2026-05-07 14:05 | 39.10632 | 12.85450 | 36901 ft | 452 kts | 165° |
| 2026-05-07 14:05 | 39.05065 | 12.89207 | 36893 ft | 452 kts | 165° |
| 2026-05-07 14:06 | 38.99484 | 12.92965 | 36900 ft | 453 kts | 165° |
| 2026-05-07 14:06 | 38.93901 | 12.96718 | 36753 ft | 455 kts | 165° |
| 2026-05-07 14:06 | 38.91097 | 12.98599 | 36432 ft | 452 kts | 165° |
| 2026-05-07 14:07 | 38.88331 | 13.00462 | 36048 ft | 447 kts | 165° |
| 2026-05-07 14:07 | 38.85596 | 13.02303 | 35711 ft | 441 kts | 165° |
| 2026-05-07 14:07 | 38.82886 | 13.04122 | 35301 ft | 438 kts | 165° |
| 2026-05-07 14:07 | 38.80196 | 13.05923 | 34931 ft | 434 kts | 165° |
| 2026-05-07 14:08 | 38.77531 | 13.07704 | 34541 ft | 430 kts | 165° |
| 2026-05-07 14:08 | 38.74885 | 13.09470 | 34165 ft | 427 kts | 165° |
| 2026-05-07 14:08 | 38.72257 | 13.11222 | 33773 ft | 424 kts | 165° |
| 2026-05-07 14:08 | 38.69650 | 13.12958 | 33360 ft | 421 kts | 165° |
| 2026-05-07 14:09 | 38.67060 | 13.14683 | 32970 ft | 418 kts | 165° |
| 2026-05-07 14:09 | 38.64495 | 13.16391 | 32594 ft | 414 kts | 165° |
| 2026-05-07 14:09 | 38.61952 | 13.18083 | 32230 ft | 410 kts | 165° |
| 2026-05-07 14:09 | 38.59466 | 13.19736 | 31876 ft | 407 kts | 165° |
| 2026-05-07 14:10 | 38.56964 | 13.21396 | 31523 ft | 403 kts | 165° |
| 2026-05-07 14:10 | 38.54482 | 13.23043 | 31165 ft | 400 kts | 165° |
| 2026-05-07 14:10 | 38.52023 | 13.24673 | 30823 ft | 397 kts | 165° |
| 2026-05-07 14:10 | 38.49580 | 13.26291 | 30476 ft | 394 kts | 165° |
| 2026-05-07 14:11 | 38.47155 | 13.27895 | 30135 ft | 391 kts | 165° |
| 2026-05-07 14:11 | 38.44754 | 13.29483 | 29768 ft | 388 kts | 165° |
| 2026-05-07 14:11 | 38.42361 | 13.31064 | 29377 ft | 385 kts | 165° |
| 2026-05-07 14:11 | 38.40122 | 13.32544 | 29052 ft | 380 kts | 165° |
| 2026-05-07 14:12 | 38.37786 | 13.34086 | 28691 ft | 376 kts | 165° |
| 2026-05-07 14:12 | 38.35471 | 13.35613 | 28324 ft | 373 kts | 165° |
| 2026-05-07 14:12 | 38.33180 | 13.37123 | 27983 ft | 369 kts | 164° |
| 2026-05-07 14:12 | 38.30906 | 13.38619 | 27622 ft | 366 kts | 164° |
| 2026-05-07 14:13 | 38.28653 | 13.40101 | 27287 ft | 363 kts | 164° |
| 2026-05-07 14:13 | 38.26419 | 13.41569 | 26932 ft | 360 kts | 163° |
| 2026-05-07 14:13 | 38.24200 | 13.43026 | 26602 ft | 358 kts | 163° |
| 2026-05-07 14:13 | 38.22030 | 13.44450 | 26272 ft | 355 kts | 163° |
| 2026-05-07 14:14 | 38.19863 | 13.45871 | 25944 ft | 353 kts | 163° |
| 2026-05-07 14:14 | 38.17689 | 13.47297 | 25619 ft | 350 kts | 163° |
| 2026-05-07 14:14 | 38.15529 | 13.48712 | 25290 ft | 348 kts | 163° |
| 2026-05-07 14:14 | 38.13382 | 13.50118 | 24966 ft | 346 kts | 163° |
| 2026-05-07 14:15 | 38.11244 | 13.51516 | 24642 ft | 345 kts | 162° |
| 2026-05-07 14:15 | 38.09114 | 13.52908 | 24330 ft | 344 kts | 162° |
| 2026-05-07 14:15 | 38.06988 | 13.54297 | 23989 ft | 343 kts | 162° |
| 2026-05-07 14:15 | 38.04867 | 13.55682 | 23666 ft | 342 kts | 162° |
| 2026-05-07 14:16 | 38.02754 | 13.57061 | 23321 ft | 341 kts | 162° |
| 2026-05-07 14:16 | 38.00645 | 13.58437 | 22945 ft | 341 kts | 162° |
| 2026-05-07 14:16 | 37.98543 | 13.59809 | 22553 ft | 337 kts | 161° |
| 2026-05-07 14:16 | 37.96519 | 13.61129 | 22310 ft | 327 kts | 162° |
| 2026-05-07 14:17 | 37.95155 | 13.62018 | 22102 ft | 326 kts | 162° |
| 2026-05-07 14:17 | 37.93130 | 13.63335 | 21768 ft | 327 kts | 161° |
| 2026-05-07 14:17 | 37.91095 | 13.64656 | 21468 ft | 332 kts | 161° |
| 2026-05-07 14:17 | 37.88449 | 13.66817 | 21020 ft | 357 kts | 143° |
| 2026-05-07 14:18 | 37.86910 | 13.69340 | 20651 ft | 371 kts | 123° |
| 2026-05-07 14:18 | 37.85860 | 13.72340 | 20303 ft | 374 kts | 116° |
| 2026-05-07 14:18 | 37.84928 | 13.75416 | 19893 ft | 374 kts | 115° |
| 2026-05-07 14:18 | 37.84311 | 13.77500 | 19672 ft | 373 kts | 115° |
| 2026-05-07 14:19 | 37.83388 | 13.80582 | 19057 ft | 380 kts | 115° |
| 2026-05-07 14:19 | 37.82419 | 13.83733 | 18424 ft | 387 kts | 115° |
| 2026-05-07 14:19 | 37.81444 | 13.86854 | 18063 ft | 386 kts | 115° |
| 2026-05-07 14:19 | 37.80455 | 13.89990 | 17691 ft | 382 kts | 116° |
| 2026-05-07 14:20 | 37.79471 | 13.93093 | 17331 ft | 378 kts | 116° |
| 2026-05-07 14:20 | 37.78492 | 13.96166 | 16940 ft | 375 kts | 116° |
| 2026-05-07 14:20 | 37.77518 | 13.99215 | 16567 ft | 373 kts | 115° |
| 2026-05-07 14:20 | 37.76546 | 14.02242 | 16181 ft | 370 kts | 116° |
| 2026-05-07 14:21 | 37.75575 | 14.05240 | 15849 ft | 367 kts | 116° |
| 2026-05-07 14:21 | 37.74609 | 14.08213 | 15500 ft | 364 kts | 116° |
| 2026-05-07 14:21 | 37.73649 | 14.11164 | 15139 ft | 362 kts | 116° |
| 2026-05-07 14:21 | 37.72696 | 14.14093 | 14770 ft | 359 kts | 116° |
| 2026-05-07 14:22 | 37.71748 | 14.17002 | 14440 ft | 357 kts | 116° |
| 2026-05-07 14:22 | 37.70808 | 14.19889 | 14085 ft | 355 kts | 116° |
| 2026-05-07 14:22 | 37.69886 | 14.22717 | 13769 ft | 352 kts | 116° |
| 2026-05-07 14:22 | 37.68957 | 14.25567 | 13412 ft | 350 kts | 116° |
| 2026-05-07 14:23 | 37.68030 | 14.28403 | 13043 ft | 348 kts | 116° |
| 2026-05-07 14:23 | 37.67110 | 14.31216 | 12697 ft | 345 kts | 116° |
| 2026-05-07 14:23 | 37.66199 | 14.34003 | 12274 ft | 343 kts | 116° |
| 2026-05-07 14:23 | 37.65289 | 14.36781 | 11908 ft | 341 kts | 116° |
| 2026-05-07 14:24 | 37.64389 | 14.39530 | 11596 ft | 337 kts | 116° |
| 2026-05-07 14:24 | 37.63495 | 14.42256 | 11234 ft | 335 kts | 116° |
| 2026-05-07 14:24 | 37.62645 | 14.44848 | 10923 ft | 334 kts | 115° |
| 2026-05-07 14:24 | 37.62166 | 14.47711 | 10656 ft | 335 kts | 93° |
| 2026-05-07 14:25 | 37.62314 | 14.50580 | 10576 ft | 320 kts | 87° |
| 2026-05-07 14:25 | 37.62545 | 14.53304 | 10449 ft | 305 kts | 87° |
| 2026-05-07 14:25 | 37.62756 | 14.55841 | 10319 ft | 291 kts | 88° |
| 2026-05-07 14:25 | 37.62947 | 14.58331 | 10142 ft | 280 kts | 88° |
| 2026-05-07 14:26 | 37.63122 | 14.60748 | 9880 ft | 274 kts | 89° |
| 2026-05-07 14:26 | 37.63293 | 14.63152 | 9437 ft | 275 kts | 89° |
| 2026-05-07 14:26 | 37.63456 | 14.65537 | 9161 ft | 271 kts | 89° |
| 2026-05-07 14:26 | 37.63601 | 14.67679 | 8987 ft | 268 kts | 89° |
| 2026-05-07 14:27 | 37.63694 | 14.69924 | 8704 ft | 264 kts | 99° |
| 2026-05-07 14:27 | 37.63111 | 14.72031 | 8501 ft | 250 kts | 130° |
| 2026-05-07 14:27 | 37.61876 | 14.73487 | 8234 ft | 241 kts | 153° |
| 2026-05-07 14:27 | 37.60333 | 14.74235 | 7968 ft | 237 kts | 171° |
| 2026-05-07 14:28 | 37.58746 | 14.74543 | 7708 ft | 237 kts | 174° |
| 2026-05-07 14:28 | 37.57114 | 14.74763 | 7553 ft | 231 kts | 182° |
| 2026-05-07 14:28 | 37.55596 | 14.74283 | 7381 ft | 227 kts | 208° |
| 2026-05-07 14:28 | 37.54408 | 14.72991 | 7173 ft | 228 kts | 231° |
| 2026-05-07 14:29 | 37.53725 | 14.71189 | 6927 ft | 232 kts | 254° |
| 2026-05-07 14:29 | 37.53479 | 14.69181 | 6735 ft | 233 kts | 260° |
| 2026-05-07 14:29 | 37.53315 | 14.67173 | 6501 ft | 234 kts | 261° |
| 2026-05-07 14:29 | 37.53151 | 14.65126 | 6314 ft | 234 kts | 261° |
| 2026-05-07 14:30 | 37.52990 | 14.63089 | 6074 ft | 236 kts | 261° |
| 2026-05-07 14:30 | 37.52814 | 14.61021 | 5791 ft | 240 kts | 262° |
| 2026-05-07 14:30 | 37.52632 | 14.58912 | 5476 ft | 245 kts | 262° |
| 2026-05-07 14:30 | 37.52444 | 14.56763 | 5220 ft | 247 kts | 261° |
| 2026-05-07 14:31 | 37.52254 | 14.54597 | 5044 ft | 250 kts | 261° |
| 2026-05-07 14:31 | 37.52059 | 14.52435 | 4982 ft | 246 kts | 262° |
| 2026-05-07 14:31 | 37.51872 | 14.50316 | 4964 ft | 241 kts | 262° |
| 2026-05-07 14:31 | 37.51687 | 14.48227 | 4980 ft | 240 kts | 261° |
| 2026-05-07 14:32 | 37.51238 | 14.46214 | 4949 ft | 238 kts | 232° |
| 2026-05-07 14:32 | 37.50068 | 14.44841 | 4989 ft | 231 kts | 200° |
| 2026-05-07 14:32 | 37.48532 | 14.44388 | 4994 ft | 226 kts | 175° |
| 2026-05-07 14:32 | 37.46974 | 14.44545 | 4972 ft | 224 kts | 168° |
| 2026-05-07 14:33 | 37.45432 | 14.44773 | 4966 ft | 222 kts | 168° |
| 2026-05-07 14:33 | 37.43904 | 14.45016 | 4951 ft | 219 kts | 162° |
| 2026-05-07 14:33 | 37.42615 | 14.45878 | 4981 ft | 207 kts | 132° |
| 2026-05-07 14:33 | 37.41848 | 14.47392 | 4982 ft | 208 kts | 108° |
| 2026-05-07 14:34 | 37.41674 | 14.49222 | 4990 ft | 216 kts | 88° |
| 2026-05-07 14:34 | 37.41819 | 14.51116 | 4977 ft | 218 kts | 85° |
| 2026-05-07 14:34 | 37.42001 | 14.53008 | 4969 ft | 217 kts | 85° |
| 2026-05-07 14:34 | 37.42178 | 14.54873 | 4961 ft | 212 kts | 85° |
| 2026-05-07 14:35 | 37.42353 | 14.56695 | 4958 ft | 208 kts | 85° |
| 2026-05-07 14:35 | 37.42520 | 14.58478 | 4953 ft | 203 kts | 86° |
| 2026-05-07 14:35 | 37.42677 | 14.60220 | 4981 ft | 200 kts | 85° |
| 2026-05-07 14:35 | 37.42892 | 14.61955 | 4977 ft | 201 kts | 83° |
| 2026-05-07 14:36 | 37.43107 | 14.63695 | 4981 ft | 202 kts | 84° |
| 2026-05-07 14:36 | 37.43285 | 14.65458 | 4993 ft | 205 kts | 85° |
| 2026-05-07 14:36 | 37.43438 | 14.67189 | 4985 ft | 208 kts | 86° |
| 2026-05-07 14:36 | 37.43581 | 14.68881 | 5000 ft | 208 kts | 86° |
| 2026-05-07 14:37 | 37.43724 | 14.70639 | 4997 ft | 200 kts | 86° |
| 2026-05-07 14:37 | 37.43989 | 14.73931 | 4872 ft | 189 kts | 85° |
| 2026-05-07 14:37 | 37.44124 | 14.75603 | 4665 ft | 190 kts | 85° |
| 2026-05-07 14:38 | 37.44237 | 14.77004 | 4442 ft | 186 kts | 85° |
| 2026-05-07 14:38 | 37.44365 | 14.78575 | 4196 ft | 180 kts | 85° |
| 2026-05-07 14:38 | 37.44492 | 14.80130 | 3957 ft | 173 kts | 85° |
| 2026-05-07 14:38 | 37.44612 | 14.81614 | 3731 ft | 168 kts | 85° |
| 2026-05-07 14:39 | 37.44728 | 14.83051 | 3520 ft | 163 kts | 85° |
| 2026-05-07 14:39 | 37.44843 | 14.84451 | 3304 ft | 159 kts | 86° |
| 2026-05-07 14:39 | 37.44955 | 14.85813 | 3103 ft | 154 kts | 85° |
| 2026-05-07 14:39 | 37.45060 | 14.87112 | 2903 ft | 150 kts | 85° |
| 2026-05-07 14:40 | 37.45168 | 14.88425 | 2700 ft | 152 kts | 85° |
| 2026-05-07 14:40 | 37.45277 | 14.89748 | 2494 ft | 151 kts | 85° |
| 2026-05-07 14:40 | 37.45383 | 14.91051 | 2297 ft | 149 kts | 86° |
| 2026-05-07 14:40 | 37.45490 | 14.92337 | 2106 ft | 147 kts | 84° |
| 2026-05-07 14:41 | 37.45594 | 14.93609 | 1920 ft | 145 kts | 84° |
| 2026-05-07 14:41 | 37.45698 | 14.94877 | 1722 ft | 146 kts | 84° |
| 2026-05-07 14:41 | 37.45800 | 14.96096 | 1558 ft | 131 kts | 83° |
| 2026-05-07 14:41 | 37.45887 | 14.97159 | 1393 ft | 114 kts | 84° |
| 2026-05-07 14:42 | 37.45966 | 14.98126 | 1231 ft | 107 kts | 82° |
| 2026-05-07 14:42 | 37.46047 | 14.99076 | 1095 ft | 116 kts | 81° |
| 2026-05-07 14:42 | 37.46132 | 15.00099 | 911 ft | 115 kts | 79° |
| 2026-05-07 14:42 | 37.46212 | 15.01097 | 796 ft | 116 kts | 79° |
| 2026-05-07 14:43 | 37.46295 | 15.02128 | 609 ft | 116 kts | 79° |
| 2026-05-07 14:43 | 37.46387 | 15.03107 | 429 ft | 109 kts | 76° |
| 2026-05-07 14:43 | 37.46472 | 15.04070 | 293 ft | 114 kts | 79° |
| 2026-05-07 14:43 | 37.46551 | 15.05114 | 123 ft | 122 kts | 77° |
| 2026-05-07 14:44 | 37.46632 | 15.06077 | 50 ft | 96 kts | 84° |
| 2026-05-07 14:44 | 37.46684 | 15.06711 | 50 ft | 35 kts | 84° |
| 2026-05-07 14:44 | 37.46699 | 15.06917 | 51 ft | 19 kts | 85° |
| 2026-05-07 14:44 | 37.46734 | 15.06940 | 51 ft | 6 kts | 337° |
| 2026-05-07 14:45 | 37.46772 | 15.06920 | 49 ft | 6 kts | 335° |
| 2026-05-07 14:45 | 37.46811 | 15.06898 | 50 ft | 6 kts | 338° |
| 2026-05-07 14:45 | 37.46847 | 15.06874 | 50 ft | 6 kts | 316° |
| 2026-05-07 14:45 | 37.46859 | 15.06826 | 50 ft | 6 kts | 270° |
| 2026-05-07 14:46 | 37.46858 | 15.06812 | 50 ft | 0 kts | 266° |
| 2026-05-07 14:46 | 37.46856 | 15.06781 | 50 ft | 8 kts | 265° |
| 2026-05-07 14:46 | 37.46851 | 15.06710 | 50 ft | 8 kts | 264° |
| 2026-05-07 14:47 | 37.46844 | 15.06640 | 50 ft | 8 kts | 263° |
| 2026-05-07 14:47 | 37.46838 | 15.06573 | 50 ft | 5 kts | 271° |
| 2026-05-07 14:47 | 37.46864 | 15.06550 | 49 ft | 4 kts | 354° |
| 2026-05-07 14:47 | 37.46893 | 15.06558 | 50 ft | 4 kts | 19° |
| 2026-05-07 14:48 | 37.46921 | 15.06570 | 50 ft | 4 kts | 19° |
| 2026-05-07 14:48 | 37.46930 | 15.06574 | 50 ft | 0 kts | 19° |